Garwin, Iowa
Current Conditions -  °F | °C
As of 5:53 AM on Friday 31 Oct 2014 (Local Time) from KMIW Reporting Station
Clear Clear  
Wind Chill: 17°   Ceiling: Unl
Heat Index: 29°   Visibility: 10mi
Dew Point: 16°   Wind: 17mph
Humidity: 58%   Direction: 350°N
Pressure: 30.4"   Gusts: NA
Location:  42.09°N, 92.68°W
Report Text: KMIW 311053Z AUTO 35015KT 10SM CLR M02/M09 A3040 RMK AO2 SLP302 T10171089
Loading
Personal Weather Stations






























Interactive Weather Map
Tropical Storm Tracking
New forecast layout! Learn more

10-Day Weather Forecast

Advertisements
Track Severe Weather on mobile